sensor_id;sensor_type;location;lat;lon;timestamp;P1;durP1;ratioP1;P2;durP2;ratioP2
59571;SDS011;59406;45.602;11.904;2023-04-01T00:00:44;6.00;;;3.60;;
59571;SDS011;59406;45.602;11.904;2023-04-01T00:03:11;6.75;;;3.22;;
59571;SDS011;59406;45.602;11.904;2023-04-01T00:05:37;6.22;;;3.70;;
59571;SDS011;59406;45.602;11.904;2023-04-01T00:08:03;6.15;;;3.00;;
59571;SDS011;59406;45.602;11.904;2023-04-01T00:10:29;6.22;;;3.35;;
59571;SDS011;59406;45.602;11.904;2023-04-01T00:12:55;6.70;;;3.73;;
59571;SDS011;59406;45.602;11.904;2023-04-01T00:15:21;7.18;;;4.30;;
59571;SDS011;59406;45.602;11.904;2023-04-01T00:17:47;7.00;;;4.25;;
59571;SDS011;59406;45.602;11.904;2023-04-01T00:20:13;5.93;;;3.55;;
59571;SDS011;59406;45.602;11.904;2023-04-01T00:22:40;5.95;;;3.60;;
59571;SDS011;59406;45.602;11.904;2023-04-01T00:25:06;6.63;;;3.90;;
59571;SDS011;59406;45.602;11.904;2023-04-01T00:27:32;6.63;;;3.38;;
59571;SDS011;59406;45.602;11.904;2023-04-01T00:29:58;6.88;;;4.40;;
59571;SDS011;59406;45.602;11.904;2023-04-01T00:32:24;6.70;;;4.00;;
59571;SDS011;59406;45.602;11.904;2023-04-01T00:34:51;6.30;;;3.80;;
59571;SDS011;59406;45.602;11.904;2023-04-01T00:37:18;9.43;;;4.75;;
59571;SDS011;59406;45.602;11.904;2023-04-01T00:39:46;7.28;;;4.22;;
59571;SDS011;59406;45.602;11.904;2023-04-01T00:42:12;7.28;;;3.78;;
59571;SDS011;59406;45.602;11.904;2023-04-01T00:44:39;6.45;;;3.80;;
59571;SDS011;59406;45.602;11.904;2023-04-01T00:47:05;7.17;;;3.80;;
59571;SDS011;59406;45.602;11.904;2023-04-01T00:49:38;6.93;;;4.18;;
59571;SDS011;59406;45.602;11.904;2023-04-01T00:52:08;6.22;;;3.50;;
59571;SDS011;59406;45.602;11.904;2023-04-01T00:54:36;6.50;;;3.83;;
59571;SDS011;59406;45.602;11.904;2023-04-01T00:57:05;6.43;;;3.53;;
59571;SDS011;59406;45.602;11.904;2023-04-01T00:59:44;6.53;;;3.80;;
59571;SDS011;59406;45.602;11.904;2023-04-01T01:02:13;7.25;;;4.20;;
59571;SDS011;59406;45.602;11.904;2023-04-01T01:04:40;6.63;;;3.53;;
59571;SDS011;59406;45.602;11.904;2023-04-01T01:10:01;6.05;;;3.35;;
59571;SDS011;59406;45.602;11.904;2023-04-01T01:21:47;6.60;;;4.57;;
59571;SDS011;59406;45.602;11.904;2023-04-01T01:26:40;6.00;;;3.87;;
59571;SDS011;59406;45.602;11.904;2023-04-01T01:29:38;6.65;;;3.88;;
59571;SDS011;59406;45.602;11.904;2023-04-01T01:37:54;6.07;;;3.20;;
59571;SDS011;59406;45.602;11.904;2023-04-01T01:40:24;8.07;;;3.80;;
59571;SDS011;59406;45.602;11.904;2023-04-01T01:42:53;5.93;;;3.53;;
59571;SDS011;59406;45.602;11.904;2023-04-01T01:45:25;6.25;;;3.45;;
59571;SDS011;59406;45.602;11.904;2023-04-01T01:47:52;6.93;;;3.42;;
59571;SDS011;59406;45.602;11.904;2023-04-01T01:50:20;6.10;;;3.67;;
59571;SDS011;59406;45.602;11.904;2023-04-01T01:52:47;5.93;;;3.30;;
59571;SDS011;59406;45.602;11.904;2023-04-01T01:58:22;6.40;;;3.35;;
59571;SDS011;59406;45.602;11.904;2023-04-01T02:00:58;5.53;;;3.70;;
59571;SDS011;59406;45.602;11.904;2023-04-01T02:03:27;7.57;;;4.87;;
59571;SDS011;59406;45.602;11.904;2023-04-01T02:05:57;6.40;;;4.00;;
59571;SDS011;59406;45.602;11.904;2023-04-01T02:08:28;6.40;;;3.75;;
59571;SDS011;59406;45.602;11.904;2023-04-01T02:11:03;6.32;;;3.88;;
59571;SDS011;59406;45.602;11.904;2023-04-01T02:16:16;5.90;;;3.40;;
59571;SDS011;59406;45.602;11.904;2023-04-01T02:18:52;6.43;;;3.40;;
59571;SDS011;59406;45.602;11.904;2023-04-01T02:21:21;7.43;;;4.50;;
59571;SDS011;59406;45.602;11.904;2023-04-01T02:23:49;6.70;;;4.07;;
59571;SDS011;59406;45.602;11.904;2023-04-01T02:26:17;6.35;;;3.90;;
59571;SDS011;59406;45.602;11.904;2023-04-01T02:28:45;6.93;;;3.97;;
59571;SDS011;59406;45.602;11.904;2023-04-01T02:31:13;5.93;;;3.22;;
59571;SDS011;59406;45.602;11.904;2023-04-01T02:33:40;7.00;;;4.35;;
59571;SDS011;59406;45.602;11.904;2023-04-01T02:36:10;6.30;;;4.35;;
59571;SDS011;59406;45.602;11.904;2023-04-01T02:38:39;6.15;;;3.80;;
59571;SDS011;59406;45.602;11.904;2023-04-01T02:41:06;6.23;;;3.70;;
59571;SDS011;59406;45.602;11.904;2023-04-01T02:43:32;6.10;;;3.75;;
59571;SDS011;59406;45.602;11.904;2023-04-01T02:45:58;5.82;;;3.50;;
59571;SDS011;59406;45.602;11.904;2023-04-01T02:48:25;6.13;;;3.80;;
59571;SDS011;59406;45.602;11.904;2023-04-01T02:50:50;6.80;;;4.23;;
59571;SDS011;59406;45.602;11.904;2023-04-01T02:53:16;6.80;;;3.95;;
59571;SDS011;59406;45.602;11.904;2023-04-01T02:55:42;6.03;;;3.50;;
59571;SDS011;59406;45.602;11.904;2023-04-01T02:58:10;5.57;;;3.10;;
59571;SDS011;59406;45.602;11.904;2023-04-01T03:00:36;6.70;;;3.78;;
59571;SDS011;59406;45.602;11.904;2023-04-01T03:03:02;6.13;;;3.47;;
59571;SDS011;59406;45.602;11.904;2023-04-01T03:05:28;6.22;;;3.50;;
59571;SDS011;59406;45.602;11.904;2023-04-01T03:07:54;6.30;;;4.28;;
59571;SDS011;59406;45.602;11.904;2023-04-01T03:10:21;6.53;;;4.53;;
59571;SDS011;59406;45.602;11.904;2023-04-01T03:12:46;6.78;;;3.85;;
59571;SDS011;59406;45.602;11.904;2023-04-01T03:15:13;6.00;;;3.55;;
59571;SDS011;59406;45.602;11.904;2023-04-01T03:17:42;5.95;;;3.58;;
59571;SDS011;59406;45.602;11.904;2023-04-01T03:20:08;5.87;;;3.57;;
59571;SDS011;59406;45.602;11.904;2023-04-01T03:22:35;5.13;;;3.20;;
59571;SDS011;59406;45.602;11.904;2023-04-01T03:25:03;6.22;;;3.88;;
59571;SDS011;59406;45.602;11.904;2023-04-01T03:27:29;6.55;;;3.90;;
59571;SDS011;59406;45.602;11.904;2023-04-01T03:29:55;5.93;;;3.93;;
59571;SDS011;59406;45.602;11.904;2023-04-01T03:32:21;6.43;;;4.03;;
59571;SDS011;59406;45.602;11.904;2023-04-01T03:34:47;6.07;;;3.25;;
59571;SDS011;59406;45.602;11.904;2023-04-01T03:37:13;6.33;;;3.47;;
59571;SDS011;59406;45.602;11.904;2023-04-01T03:39:39;6.15;;;3.47;;
59571;SDS011;59406;45.602;11.904;2023-04-01T03:42:05;5.80;;;3.20;;
59571;SDS011;59406;45.602;11.904;2023-04-01T03:44:32;6.45;;;3.63;;
59571;SDS011;59406;45.602;11.904;2023-04-01T03:46:59;5.75;;;3.35;;
59571;SDS011;59406;45.602;11.904;2023-04-01T03:49:25;5.83;;;3.50;;
59571;SDS011;59406;45.602;11.904;2023-04-01T03:51:52;5.82;;;3.20;;
59571;SDS011;59406;45.602;11.904;2023-04-01T03:54:17;6.10;;;3.35;;
59571;SDS011;59406;45.602;11.904;2023-04-01T03:56:45;6.50;;;3.40;;
59571;SDS011;59406;45.602;11.904;2023-04-01T03:59:11;5.43;;;3.38;;
59571;SDS011;59406;45.602;11.904;2023-04-01T04:01:38;6.20;;;3.57;;
59571;SDS011;59406;45.602;11.904;2023-04-01T04:04:04;5.97;;;3.42;;
59571;SDS011;59406;45.602;11.904;2023-04-01T04:06:30;5.78;;;3.38;;
59571;SDS011;59406;45.602;11.904;2023-04-01T04:08:56;5.85;;;3.17;;
59571;SDS011;59406;45.602;11.904;2023-04-01T04:11:22;5.82;;;3.53;;
59571;SDS011;59406;45.602;11.904;2023-04-01T04:13:48;5.40;;;3.47;;
59571;SDS011;59406;45.602;11.904;2023-04-01T04:16:15;5.30;;;3.10;;
59571;SDS011;59406;45.602;11.904;2023-04-01T04:18:42;6.22;;;3.47;;
59571;SDS011;59406;45.602;11.904;2023-04-01T04:21:11;6.65;;;4.38;;
59571;SDS011;59406;45.602;11.904;2023-04-01T04:23:39;7.15;;;4.57;;
59571;SDS011;59406;45.602;11.904;2023-04-01T04:26:06;7.33;;;4.77;;
59571;SDS011;59406;45.602;11.904;2023-04-01T04:28:34;7.07;;;4.68;;
59571;SDS011;59406;45.602;11.904;2023-04-01T04:31:00;6.05;;;4.07;;
59571;SDS011;59406;45.602;11.904;2023-04-01T04:33:27;5.90;;;3.95;;
59571;SDS011;59406;45.602;11.904;2023-04-01T04:35:57;6.73;;;3.93;;
59571;SDS011;59406;45.602;11.904;2023-04-01T04:38:24;6.37;;;3.63;;
59571;SDS011;59406;45.602;11.904;2023-04-01T04:40:51;5.68;;;3.50;;
59571;SDS011;59406;45.602;11.904;2023-04-01T04:43:17;5.38;;;3.30;;
59571;SDS011;59406;45.602;11.904;2023-04-01T04:45:44;6.95;;;4.65;;
59571;SDS011;59406;45.602;11.904;2023-04-01T04:48:11;5.70;;;3.58;;
59571;SDS011;59406;45.602;11.904;2023-04-01T04:50:49;5.53;;;3.57;;
59571;SDS011;59406;45.602;11.904;2023-04-01T04:53:16;6.10;;;4.10;;
59571;SDS011;59406;45.602;11.904;2023-04-01T04:55:47;6.35;;;3.67;;
59571;SDS011;59406;45.602;11.904;2023-04-01T04:58:15;4.75;;;2.85;;
59571;SDS011;59406;45.602;11.904;2023-04-01T05:00:41;6.20;;;3.15;;
59571;SDS011;59406;45.602;11.904;2023-04-01T05:03:07;5.97;;;3.57;;
59571;SDS011;59406;45.602;11.904;2023-04-01T05:05:34;6.07;;;3.55;;
59571;SDS011;59406;45.602;11.904;2023-04-01T05:08:00;6.55;;;3.13;;
59571;SDS011;59406;45.602;11.904;2023-04-01T05:10:26;5.60;;;3.55;;
59571;SDS011;59406;45.602;11.904;2023-04-01T05:12:52;5.07;;;2.97;;
59571;SDS011;59406;45.602;11.904;2023-04-01T05:15:18;6.10;;;3.20;;
59571;SDS011;59406;45.602;11.904;2023-04-01T05:17:44;5.55;;;3.33;;
59571;SDS011;59406;45.602;11.904;2023-04-01T05:20:11;5.30;;;3.30;;
59571;SDS011;59406;45.602;11.904;2023-04-01T05:22:38;6.43;;;3.60;;
59571;SDS011;59406;45.602;11.904;2023-04-01T05:25:04;6.20;;;3.15;;
59571;SDS011;59406;45.602;11.904;2023-04-01T05:27:31;5.75;;;2.90;;
59571;SDS011;59406;45.602;11.904;2023-04-01T05:29:57;5.75;;;3.50;;
59571;SDS011;59406;45.602;11.904;2023-04-01T05:32:23;5.60;;;3.00;;
59571;SDS011;59406;45.602;11.904;2023-04-01T05:34:52;6.57;;;3.37;;
59571;SDS011;59406;45.602;11.904;2023-04-01T05:37:19;6.55;;;4.25;;
59571;SDS011;59406;45.602;11.904;2023-04-01T05:39:45;6.35;;;4.00;;
59571;SDS011;59406;45.602;11.904;2023-04-01T05:42:11;6.32;;;3.30;;
59571;SDS011;59406;45.602;11.904;2023-04-01T05:44:37;6.93;;;3.60;;
59571;SDS011;59406;45.602;11.904;2023-04-01T05:47:03;5.28;;;3.20;;
59571;SDS011;59406;45.602;11.904;2023-04-01T05:49:29;6.40;;;2.78;;
59571;SDS011;59406;45.602;11.904;2023-04-01T05:51:55;5.82;;;3.10;;
59571;SDS011;59406;45.602;11.904;2023-04-01T05:54:22;5.28;;;2.97;;
59571;SDS011;59406;45.602;11.904;2023-04-01T05:56:48;5.80;;;2.90;;
59571;SDS011;59406;45.602;11.904;2023-04-01T05:59:14;5.72;;;2.85;;
59571;SDS011;59406;45.602;11.904;2023-04-01T06:01:39;5.75;;;2.42;;
59571;SDS011;59406;45.602;11.904;2023-04-01T06:04:06;5.72;;;2.95;;
59571;SDS011;59406;45.602;11.904;2023-04-01T06:06:32;6.93;;;2.70;;
59571;SDS011;59406;45.602;11.904;2023-04-01T06:09:23;4.80;;;2.60;;
59571;SDS011;59406;45.602;11.904;2023-04-01T06:31:57;5.30;;;3.03;;
59571;SDS011;59406;45.602;11.904;2023-04-01T06:34:42;6.97;;;3.60;;
59571;SDS011;59406;45.602;11.904;2023-04-01T06:51:16;6.68;;;3.60;;
59571;SDS011;59406;45.602;11.904;2023-04-01T06:53:55;6.53;;;3.63;;
59571;SDS011;59406;45.602;11.904;2023-04-01T06:56:32;7.57;;;3.90;;
59571;SDS011;59406;45.602;11.904;2023-04-01T06:59:02;6.55;;;4.03;;
59571;SDS011;59406;45.602;11.904;2023-04-01T07:01:45;7.57;;;4.17;;
59571;SDS011;59406;45.602;11.904;2023-04-01T07:06:46;7.60;;;4.50;;
59571;SDS011;59406;45.602;11.904;2023-04-01T07:09:27;7.38;;;4.03;;
59571;SDS011;59406;45.602;11.904;2023-04-01T07:12:00;7.28;;;4.15;;
59571;SDS011;59406;45.602;11.904;2023-04-01T07:14:35;7.27;;;4.03;;
59571;SDS011;59406;45.602;11.904;2023-04-01T07:19:44;7.50;;;4.25;;
59571;SDS011;59406;45.602;11.904;2023-04-01T07:22:23;8.77;;;4.60;;
59571;SDS011;59406;45.602;11.904;2023-04-01T07:25:02;7.28;;;4.38;;
59571;SDS011;59406;45.602;11.904;2023-04-01T07:27:36;8.40;;;4.37;;
59571;SDS011;59406;45.602;11.904;2023-04-01T07:30:03;7.75;;;4.78;;
59571;SDS011;59406;45.602;11.904;2023-04-01T07:40:45;9.50;;;5.97;;
59571;SDS011;59406;45.602;11.904;2023-04-01T07:54:16;9.80;;;5.83;;
59571;SDS011;59406;45.602;11.904;2023-04-01T08:00:22;8.55;;;5.20;;
59571;SDS011;59406;45.602;11.904;2023-04-01T08:07:48;11.20;;;6.33;;
59571;SDS011;59406;45.602;11.904;2023-04-01T08:10:59;9.38;;;5.30;;
59571;SDS011;59406;45.602;11.904;2023-04-01T08:19:18;15.10;;;7.07;;
59571;SDS011;59406;45.602;11.904;2023-04-01T08:21:54;13.07;;;6.97;;
59571;SDS011;59406;45.602;11.904;2023-04-01T08:24:39;11.98;;;7.20;;
59571;SDS011;59406;45.602;11.904;2023-04-01T08:27:26;10.52;;;6.30;;
59571;SDS011;59406;45.602;11.904;2023-04-01T08:30:06;11.40;;;6.47;;
59571;SDS011;59406;45.602;11.904;2023-04-01T08:32:44;11.77;;;5.80;;
59571;SDS011;59406;45.602;11.904;2023-04-01T08:35:39;8.60;;;4.93;;
59571;SDS011;59406;45.602;11.904;2023-04-01T08:38:30;9.82;;;5.07;;
59571;SDS011;59406;45.602;11.904;2023-04-01T08:56:03;10.93;;;5.93;;
59571;SDS011;59406;45.602;11.904;2023-04-01T09:10:17;10.32;;;5.93;;
59571;SDS011;59406;45.602;11.904;2023-04-01T09:18:49;8.70;;;5.60;;
59571;SDS011;59406;45.602;11.904;2023-04-01T09:27:29;8.68;;;5.25;;
59571;SDS011;59406;45.602;11.904;2023-04-01T09:30:20;13.35;;;6.35;;
59571;SDS011;59406;45.602;11.904;2023-04-01T09:38:19;8.88;;;5.53;;
59571;SDS011;59406;45.602;11.904;2023-04-01T09:52:40;9.15;;;4.55;;
59571;SDS011;59406;45.602;11.904;2023-04-01T09:55:19;8.73;;;5.15;;
59571;SDS011;59406;45.602;11.904;2023-04-01T09:58:01;9.73;;;5.05;;
59571;SDS011;59406;45.602;11.904;2023-04-01T10:15:55;8.67;;;4.50;;
59571;SDS011;59406;45.602;11.904;2023-04-01T10:24:47;10.65;;;4.47;;
59571;SDS011;59406;45.602;11.904;2023-04-01T10:41:04;6.72;;;3.83;;
59571;SDS011;59406;45.602;11.904;2023-04-01T10:43:57;7.40;;;4.27;;
59571;SDS011;59406;45.602;11.904;2023-04-01T10:49:10;8.57;;;3.97;;
59571;SDS011;59406;45.602;11.904;2023-04-01T10:54:45;8.48;;;4.57;;
59571;SDS011;59406;45.602;11.904;2023-04-01T11:28:33;9.93;;;5.20;;
59571;SDS011;59406;45.602;11.904;2023-04-01T11:43:10;9.20;;;5.43;;
59571;SDS011;59406;45.602;11.904;2023-04-01T11:48:09;6.85;;;3.72;;
59571;SDS011;59406;45.602;11.904;2023-04-01T12:07:55;9.00;;;5.33;;
59571;SDS011;59406;45.602;11.904;2023-04-01T12:10:46;9.43;;;4.90;;
59571;SDS011;59406;45.602;11.904;2023-04-01T12:13:39;7.50;;;3.90;;
59571;SDS011;59406;45.602;11.904;2023-04-01T12:16:37;6.57;;;3.70;;
59571;SDS011;59406;45.602;11.904;2023-04-01T12:19:17;7.70;;;4.38;;
59571;SDS011;59406;45.602;11.904;2023-04-01T12:22:02;9.30;;;5.50;;
59571;SDS011;59406;45.602;11.904;2023-04-01T12:24:45;8.55;;;5.00;;
59571;SDS011;59406;45.602;11.904;2023-04-01T12:35:05;6.83;;;3.37;;
59571;SDS011;59406;45.602;11.904;2023-04-01T12:40:39;7.68;;;4.07;;
59571;SDS011;59406;45.602;11.904;2023-04-01T12:46:19;8.20;;;4.35;;
59571;SDS011;59406;45.602;11.904;2023-04-01T12:52:05;7.03;;;3.53;;
59571;SDS011;59406;45.602;11.904;2023-04-01T12:56:53;6.82;;;3.53;;
59571;SDS011;59406;45.602;11.904;2023-04-01T13:10:27;6.82;;;3.65;;
59571;SDS011;59406;45.602;11.904;2023-04-01T13:51:38;8.07;;;2.97;;
59571;SDS011;59406;45.602;11.904;2023-04-01T14:00:25;6.97;;;2.88;;
59571;SDS011;59406;45.602;11.904;2023-04-01T14:06:00;5.70;;;2.67;;
59571;SDS011;59406;45.602;11.904;2023-04-01T14:11:07;7.63;;;3.63;;
59571;SDS011;59406;45.602;11.904;2023-04-01T14:19:29;7.55;;;3.30;;
59571;SDS011;59406;45.602;11.904;2023-04-01T14:33:46;5.20;;;2.58;;
59571;SDS011;59406;45.602;11.904;2023-04-01T14:39:21;5.32;;;2.85;;
59571;SDS011;59406;45.602;11.904;2023-04-01T14:47:56;5.47;;;2.83;;
59571;SDS011;59406;45.602;11.904;2023-04-01T14:50:42;6.70;;;2.77;;
59571;SDS011;59406;45.602;11.904;2023-04-01T14:55:51;7.05;;;3.85;;
59571;SDS011;59406;45.602;11.904;2023-04-01T14:58:20;6.25;;;3.03;;
59571;SDS011;59406;45.602;11.904;2023-04-01T15:00:56;6.30;;;2.75;;
59571;SDS011;59406;45.602;11.904;2023-04-01T15:06:44;5.22;;;2.60;;
59571;SDS011;59406;45.602;11.904;2023-04-01T15:14:31;5.10;;;2.97;;
59571;SDS011;59406;45.602;11.904;2023-04-01T15:23:01;6.72;;;3.78;;
59571;SDS011;59406;45.602;11.904;2023-04-01T15:39:04;7.53;;;4.20;;
59571;SDS011;59406;45.602;11.904;2023-04-01T15:47:28;8.95;;;5.28;;
59571;SDS011;59406;45.602;11.904;2023-04-01T15:50:22;8.52;;;4.68;;
59571;SDS011;59406;45.602;11.904;2023-04-01T15:52:59;9.55;;;5.00;;
59571;SDS011;59406;45.602;11.904;2023-04-01T15:59:17;7.70;;;4.20;;
59571;SDS011;59406;45.602;11.904;2023-04-01T16:06:51;7.07;;;4.30;;
59571;SDS011;59406;45.602;11.904;2023-04-01T16:15:25;8.10;;;4.38;;
59571;SDS011;59406;45.602;11.904;2023-04-01T16:23:03;10.63;;;5.60;;
59571;SDS011;59406;45.602;11.904;2023-04-01T16:28:54;8.90;;;4.43;;
59571;SDS011;59406;45.602;11.904;2023-04-01T16:31:44;8.10;;;4.45;;
59571;SDS011;59406;45.602;11.904;2023-04-01T16:34:40;7.65;;;3.88;;
59571;SDS011;59406;45.602;11.904;2023-04-01T16:37:20;8.00;;;4.80;;
59571;SDS011;59406;45.602;11.904;2023-04-01T16:45:54;8.10;;;4.20;;
59571;SDS011;59406;45.602;11.904;2023-04-01T16:51:32;6.72;;;3.53;;
59571;SDS011;59406;45.602;11.904;2023-04-01T17:02:45;6.57;;;3.58;;
59571;SDS011;59406;45.602;11.904;2023-04-01T17:05:17;6.60;;;3.60;;
59571;SDS011;59406;45.602;11.904;2023-04-01T17:07:55;6.63;;;3.77;;
59571;SDS011;59406;45.602;11.904;2023-04-01T17:10:37;7.90;;;3.80;;
59571;SDS011;59406;45.602;11.904;2023-04-01T17:13:18;7.45;;;3.95;;
59571;SDS011;59406;45.602;11.904;2023-04-01T17:18:46;6.75;;;3.75;;
59571;SDS011;59406;45.602;11.904;2023-04-01T17:27:47;6.60;;;3.60;;
59571;SDS011;59406;45.602;11.904;2023-04-01T17:30:41;7.78;;;3.90;;
59571;SDS011;59406;45.602;11.904;2023-04-01T17:33:15;7.55;;;3.80;;
59571;SDS011;59406;45.602;11.904;2023-04-01T17:36:02;8.47;;;4.30;;
59571;SDS011;59406;45.602;11.904;2023-04-01T17:49:55;12.03;;;5.90;;
59571;SDS011;59406;45.602;11.904;2023-04-01T17:58:03;9.00;;;5.55;;
59571;SDS011;59406;45.602;11.904;2023-04-01T18:06:21;9.45;;;5.20;;
59571;SDS011;59406;45.602;11.904;2023-04-01T18:17:17;9.93;;;5.07;;
59571;SDS011;59406;45.602;11.904;2023-04-01T18:20:11;10.20;;;5.53;;
59571;SDS011;59406;45.602;11.904;2023-04-01T18:25:33;9.25;;;5.15;;
59571;SDS011;59406;45.602;11.904;2023-04-01T18:30:37;9.70;;;5.75;;
59571;SDS011;59406;45.602;11.904;2023-04-01T18:38:53;9.85;;;5.57;;
59571;SDS011;59406;45.602;11.904;2023-04-01T18:52:42;9.13;;;5.13;;
59571;SDS011;59406;45.602;11.904;2023-04-01T19:01:11;8.38;;;4.70;;
59571;SDS011;59406;45.602;11.904;2023-04-01T19:06:54;8.65;;;4.03;;
59571;SDS011;59406;45.602;11.904;2023-04-01T19:20:00;6.82;;;3.42;;
59571;SDS011;59406;45.602;11.904;2023-04-01T19:26:09;8.02;;;3.17;;
59571;SDS011;59406;45.602;11.904;2023-04-01T19:39:55;6.50;;;2.90;;
59571;SDS011;59406;45.602;11.904;2023-04-01T19:42:44;7.63;;;3.47;;
59571;SDS011;59406;45.602;11.904;2023-04-01T19:56:13;6.10;;;3.22;;
59571;SDS011;59406;45.602;11.904;2023-04-01T20:01:46;6.45;;;2.90;;
59571;SDS011;59406;45.602;11.904;2023-04-01T20:04:17;6.77;;;3.00;;
59571;SDS011;59406;45.602;11.904;2023-04-01T20:07:16;5.93;;;2.92;;
59571;SDS011;59406;45.602;11.904;2023-04-01T20:10:02;6.22;;;2.78;;
59571;SDS011;59406;45.602;11.904;2023-04-01T20:20:54;5.75;;;2.70;;
59571;SDS011;59406;45.602;11.904;2023-04-01T20:26:02;5.85;;;2.60;;
59571;SDS011;59406;45.602;11.904;2023-04-01T20:28:37;5.38;;;2.67;;
59571;SDS011;59406;45.602;11.904;2023-04-01T20:34:11;5.40;;;2.50;;
59571;SDS011;59406;45.602;11.904;2023-04-01T20:44:44;5.00;;;2.60;;
59571;SDS011;59406;45.602;11.904;2023-04-01T20:47:27;4.85;;;2.55;;
59571;SDS011;59406;45.602;11.904;2023-04-01T20:53:12;5.00;;;2.50;;
59571;SDS011;59406;45.602;11.904;2023-04-01T20:56:02;5.75;;;2.28;;
59571;SDS011;59406;45.602;11.904;2023-04-01T21:09:55;5.38;;;2.80;;
59571;SDS011;59406;45.602;11.904;2023-04-01T21:12:54;5.27;;;2.40;;
59571;SDS011;59406;45.602;11.904;2023-04-01T21:28:56;6.18;;;2.80;;
59571;SDS011;59406;45.602;11.904;2023-04-01T21:31:43;6.47;;;2.97;;
59571;SDS011;59406;45.602;11.904;2023-04-01T21:34:35;6.15;;;2.70;;
59571;SDS011;59406;45.602;11.904;2023-04-01T21:51:02;6.82;;;3.72;;
59571;SDS011;59406;45.602;11.904;2023-04-01T22:04:52;8.27;;;4.45;;
59571;SDS011;59406;45.602;11.904;2023-04-01T22:07:20;10.17;;;4.37;;
59571;SDS011;59406;45.602;11.904;2023-04-01T22:12:35;6.63;;;4.00;;
59571;SDS011;59406;45.602;11.904;2023-04-01T22:17:53;7.28;;;3.67;;
59571;SDS011;59406;45.602;11.904;2023-04-01T22:20:25;6.10;;;3.33;;
59571;SDS011;59406;45.602;11.904;2023-04-01T22:28:07;6.07;;;2.88;;
59571;SDS011;59406;45.602;11.904;2023-04-01T22:30:45;4.93;;;2.80;;
59571;SDS011;59406;45.602;11.904;2023-04-01T22:36:08;5.85;;;2.70;;
59571;SDS011;59406;45.602;11.904;2023-04-01T22:44:20;5.85;;;2.95;;
59571;SDS011;59406;45.602;11.904;2023-04-01T22:49:51;5.00;;;2.50;;
59571;SDS011;59406;45.602;11.904;2023-04-01T22:52:34;5.45;;;2.60;;
59571;SDS011;59406;45.602;11.904;2023-04-01T22:55:10;5.10;;;2.60;;
59571;SDS011;59406;45.602;11.904;2023-04-01T22:58:14;6.05;;;2.33;;
59571;SDS011;59406;45.602;11.904;2023-04-01T23:00:56;5.30;;;2.20;;
59571;SDS011;59406;45.602;11.904;2023-04-01T23:03:32;5.35;;;2.67;;
59571;SDS011;59406;45.602;11.904;2023-04-01T23:06:05;6.03;;;2.97;;
59571;SDS011;59406;45.602;11.904;2023-04-01T23:11:11;6.30;;;2.90;;
59571;SDS011;59406;45.602;11.904;2023-04-01T23:13:50;6.80;;;2.80;;
59571;SDS011;59406;45.602;11.904;2023-04-01T23:16:24;7.82;;;3.67;;
59571;SDS011;59406;45.602;11.904;2023-04-01T23:19:18;6.57;;;3.67;;
59571;SDS011;59406;45.602;11.904;2023-04-01T23:21:53;5.25;;;2.95;;
59571;SDS011;59406;45.602;11.904;2023-04-01T23:24:30;6.38;;;2.95;;
59571;SDS011;59406;45.602;11.904;2023-04-01T23:27:08;5.17;;;2.50;;
59571;SDS011;59406;45.602;11.904;2023-04-01T23:29:42;5.03;;;2.58;;
59571;SDS011;59406;45.602;11.904;2023-04-01T23:32:18;4.63;;;2.50;;
59571;SDS011;59406;45.602;11.904;2023-04-01T23:34:48;8.10;;;2.88;;
59571;SDS011;59406;45.602;11.904;2023-04-01T23:37:16;5.50;;;2.47;;
59571;SDS011;59406;45.602;11.904;2023-04-01T23:39:57;5.73;;;3.00;;
59571;SDS011;59406;45.602;11.904;2023-04-01T23:42:33;5.78;;;3.05;;
59571;SDS011;59406;45.602;11.904;2023-04-01T23:45:11;4.68;;;2.53;;
59571;SDS011;59406;45.602;11.904;2023-04-01T23:47:42;6.78;;;2.90;;
59571;SDS011;59406;45.602;11.904;2023-04-01T23:52:40;5.90;;;3.27;;
59571;SDS011;59406;45.602;11.904;2023-04-01T23:55:13;5.85;;;3.40;;
59571;SDS011;59406;45.602;11.904;2023-04-01T23:57:40;5.78;;;2.95;;
